sensor_id;sensor_type;location;lat;lon;timestamp;temperature;humidity
6696;DHT22;3385;48.928;10.330;2023-12-07T00:01:09;0.00;99.90
6696;DHT22;3385;48.928;10.330;2023-12-07T00:03:35;0.00;99.90
6696;DHT22;3385;48.928;10.330;2023-12-07T00:06:01;0.00;99.90
6696;DHT22;3385;48.928;10.330;2023-12-07T00:08:26;0.00;99.90
6696;DHT22;3385;48.928;10.330;2023-12-07T00:10:52;0.10;99.90
6696;DHT22;3385;48.928;10.330;2023-12-07T00:13:18;0.00;99.90
6696;DHT22;3385;48.928;10.330;2023-12-07T00:15:44;0.00;99.90
6696;DHT22;3385;48.928;10.330;2023-12-07T00:18:09;0.20;99.90
6696;DHT22;3385;48.928;10.330;2023-12-07T00:20:35;0.10;99.90
6696;DHT22;3385;48.928;10.330;2023-12-07T00:23:01;0.00;99.90
6696;DHT22;3385;48.928;10.330;2023-12-07T00:25:26;0.20;99.90
6696;DHT22;3385;48.928;10.330;2023-12-07T00:27:52;0.10;99.90
6696;DHT22;3385;48.928;10.330;2023-12-07T00:30:18;0.20;99.90
6696;DHT22;3385;48.928;10.330;2023-12-07T00:32:44;0.00;99.90
6696;DHT22;3385;48.928;10.330;2023-12-07T00:35:12;0.40;99.90
6696;DHT22;3385;48.928;10.330;2023-12-07T00:37:38;0.00;99.90
6696;DHT22;3385;48.928;10.330;2023-12-07T00:40:04;0.00;99.90
6696;DHT22;3385;48.928;10.330;2023-12-07T00:42:31;0.20;99.90
6696;DHT22;3385;48.928;10.330;2023-12-07T00:44:57;0.10;99.90
6696;DHT22;3385;48.928;10.330;2023-12-07T00:47:23;0.20;99.90
6696;DHT22;3385;48.928;10.330;2023-12-07T00:49:49;0.40;99.90
6696;DHT22;3385;48.928;10.330;2023-12-07T00:52:15;0.20;99.90
6696;DHT22;3385;48.928;10.330;2023-12-07T00:54:40;0.20;99.90
6696;DHT22;3385;48.928;10.330;2023-12-07T00:57:06;0.10;99.90
6696;DHT22;3385;48.928;10.330;2023-12-07T00:59:32;0.20;99.90
6696;DHT22;3385;48.928;10.330;2023-12-07T01:04:28;0.30;99.90
6696;DHT22;3385;48.928;10.330;2023-12-07T01:06:54;4.00;99.90
6696;DHT22;3385;48.928;10.330;2023-12-07T01:09:20;0.10;99.90
6696;DHT22;3385;48.928;10.330;2023-12-07T01:11:47;0.00;99.90
6696;DHT22;3385;48.928;10.330;2023-12-07T01:14:13;0.10;99.90
6696;DHT22;3385;48.928;10.330;2023-12-07T01:16:39;0.00;99.90
6696;DHT22;3385;48.928;10.330;2023-12-07T01:19:05;0.10;99.90
6696;DHT22;3385;48.928;10.330;2023-12-07T01:21:32;0.10;99.90
6696;DHT22;3385;48.928;10.330;2023-12-07T01:23:58;0.40;99.90
6696;DHT22;3385;48.928;10.330;2023-12-07T01:26:24;0.10;99.90
6696;DHT22;3385;48.928;10.330;2023-12-07T01:28:50;0.20;99.90
6696;DHT22;3385;48.928;10.330;2023-12-07T01:31:15;0.30;99.90
6696;DHT22;3385;48.928;10.330;2023-12-07T01:33:42;0.30;99.90
6696;DHT22;3385;48.928;10.330;2023-12-07T01:36:08;0.20;99.90
6696;DHT22;3385;48.928;10.330;2023-12-07T01:38:34;0.20;99.90
6696;DHT22;3385;48.928;10.330;2023-12-07T01:41:00;0.20;99.90
6696;DHT22;3385;48.928;10.330;2023-12-07T01:43:25;0.20;99.90
6696;DHT22;3385;48.928;10.330;2023-12-07T01:45:52;0.30;99.90
6696;DHT22;3385;48.928;10.330;2023-12-07T01:48:20;0.20;99.90
6696;DHT22;3385;48.928;10.330;2023-12-07T01:50:47;0.10;99.90
6696;DHT22;3385;48.928;10.330;2023-12-07T01:53:13;0.20;99.90
6696;DHT22;3385;48.928;10.330;2023-12-07T01:55:39;0.20;99.90
6696;DHT22;3385;48.928;10.330;2023-12-07T01:58:06;0.40;99.90
6696;DHT22;3385;48.928;10.330;2023-12-07T02:00:33;0.10;99.90
6696;DHT22;3385;48.928;10.330;2023-12-07T02:03:00;0.30;99.90
6696;DHT22;3385;48.928;10.330;2023-12-07T02:05:29;0.20;99.90
6696;DHT22;3385;48.928;10.330;2023-12-07T02:07:54;0.40;99.90
6696;DHT22;3385;48.928;10.330;2023-12-07T02:10:20;0.20;99.90
6696;DHT22;3385;48.928;10.330;2023-12-07T02:12:47;0.10;99.90
6696;DHT22;3385;48.928;10.330;2023-12-07T02:15:13;0.10;99.90
6696;DHT22;3385;48.928;10.330;2023-12-07T02:17:49;0.20;99.90
6696;DHT22;3385;48.928;10.330;2023-12-07T02:20:21;0.10;99.90
6696;DHT22;3385;48.928;10.330;2023-12-07T02:22:56;0.10;99.90
6696;DHT22;3385;48.928;10.330;2023-12-07T02:25:31;0.10;99.90
6696;DHT22;3385;48.928;10.330;2023-12-07T02:27:57;0.20;99.90
6696;DHT22;3385;48.928;10.330;2023-12-07T02:30:23;0.20;99.90
6696;DHT22;3385;48.928;10.330;2023-12-07T02:32:49;0.20;99.90
6696;DHT22;3385;48.928;10.330;2023-12-07T02:35:15;0.20;99.90
6696;DHT22;3385;48.928;10.330;2023-12-07T02:37:45;0.10;99.90
6696;DHT22;3385;48.928;10.330;2023-12-07T02:40:14;0.00;99.90
6696;DHT22;3385;48.928;10.330;2023-12-07T02:42:40;0.10;99.90
6696;DHT22;3385;48.928;10.330;2023-12-07T02:45:09;0.00;99.90
6696;DHT22;3385;48.928;10.330;2023-12-07T02:47:35;-0.30;99.90
6696;DHT22;3385;48.928;10.330;2023-12-07T02:50:04;0.00;99.90
6696;DHT22;3385;48.928;10.330;2023-12-07T02:52:31;0.10;99.90
6696;DHT22;3385;48.928;10.330;2023-12-07T02:54:56;0.00;99.90
6696;DHT22;3385;48.928;10.330;2023-12-07T02:57:22;0.00;99.90
6696;DHT22;3385;48.928;10.330;2023-12-07T02:59:48;0.10;99.90
6696;DHT22;3385;48.928;10.330;2023-12-07T03:02:13;0.00;99.90
6696;DHT22;3385;48.928;10.330;2023-12-07T03:04:39;0.10;99.90
6696;DHT22;3385;48.928;10.330;2023-12-07T03:07:05;0.10;99.90
6696;DHT22;3385;48.928;10.330;2023-12-07T03:09:31;0.20;99.90
6696;DHT22;3385;48.928;10.330;2023-12-07T03:11:56;0.20;99.90
6696;DHT22;3385;48.928;10.330;2023-12-07T03:14:22;0.30;99.90
6696;DHT22;3385;48.928;10.330;2023-12-07T03:16:48;-0.10;99.90
6696;DHT22;3385;48.928;10.330;2023-12-07T03:19:13;0.10;99.90
6696;DHT22;3385;48.928;10.330;2023-12-07T03:21:40;0.00;99.90
6696;DHT22;3385;48.928;10.330;2023-12-07T03:24:09;0.00;99.90
6696;DHT22;3385;48.928;10.330;2023-12-07T03:26:36;0.00;99.90
6696;DHT22;3385;48.928;10.330;2023-12-07T03:29:02;0.20;99.90
6696;DHT22;3385;48.928;10.330;2023-12-07T03:31:28;0.10;99.90
6696;DHT22;3385;48.928;10.330;2023-12-07T03:33:55;0.20;99.90
6696;DHT22;3385;48.928;10.330;2023-12-07T03:36:21;0.10;99.90
6696;DHT22;3385;48.928;10.330;2023-12-07T03:38:47;0.20;99.90
6696;DHT22;3385;48.928;10.330;2023-12-07T03:41:13;0.10;99.90
6696;DHT22;3385;48.928;10.330;2023-12-07T03:43:39;0.20;99.90
6696;DHT22;3385;48.928;10.330;2023-12-07T03:46:08;-0.20;99.90
6696;DHT22;3385;48.928;10.330;2023-12-07T03:48:34;0.00;99.90
6696;DHT22;3385;48.928;10.330;2023-12-07T03:51:00;0.10;99.90
6696;DHT22;3385;48.928;10.330;2023-12-07T03:53:27;-0.10;99.90
6696;DHT22;3385;48.928;10.330;2023-12-07T03:55:55;-0.10;99.90
6696;DHT22;3385;48.928;10.330;2023-12-07T03:58:21;-0.10;99.90
6696;DHT22;3385;48.928;10.330;2023-12-07T04:00:46;-0.10;99.90
6696;DHT22;3385;48.928;10.330;2023-12-07T04:03:12;0.20;99.90
6696;DHT22;3385;48.928;10.330;2023-12-07T04:05:38;-0.10;99.90
6696;DHT22;3385;48.928;10.330;2023-12-07T04:08:04;-0.10;99.90
6696;DHT22;3385;48.928;10.330;2023-12-07T04:10:31;0.00;99.90
6696;DHT22;3385;48.928;10.330;2023-12-07T04:12:57;-0.10;99.90
6696;DHT22;3385;48.928;10.330;2023-12-07T04:15:23;0.10;99.90
6696;DHT22;3385;48.928;10.330;2023-12-07T04:17:49;0.30;99.90
6696;DHT22;3385;48.928;10.330;2023-12-07T04:20:15;0.30;99.90
6696;DHT22;3385;48.928;10.330;2023-12-07T04:22:41;0.20;99.90
6696;DHT22;3385;48.928;10.330;2023-12-07T04:25:07;0.10;99.90
6696;DHT22;3385;48.928;10.330;2023-12-07T04:27:33;0.00;99.90
6696;DHT22;3385;48.928;10.330;2023-12-07T04:29:59;0.00;99.90
6696;DHT22;3385;48.928;10.330;2023-12-07T04:32:25;0.10;99.90
6696;DHT22;3385;48.928;10.330;2023-12-07T04:34:51;0.10;99.90
6696;DHT22;3385;48.928;10.330;2023-12-07T04:37:18;0.10;99.90
6696;DHT22;3385;48.928;10.330;2023-12-07T04:39:43;0.30;99.90
6696;DHT22;3385;48.928;10.330;2023-12-07T04:42:09;0.30;99.90
6696;DHT22;3385;48.928;10.330;2023-12-07T04:44:35;0.20;99.90
6696;DHT22;3385;48.928;10.330;2023-12-07T04:47:00;0.10;99.90
6696;DHT22;3385;48.928;10.330;2023-12-07T04:49:26;0.10;99.90
6696;DHT22;3385;48.928;10.330;2023-12-07T04:51:52;0.00;99.90
6696;DHT22;3385;48.928;10.330;2023-12-07T04:54:18;0.00;99.90
6696;DHT22;3385;48.928;10.330;2023-12-07T04:56:44;-0.10;99.90
6696;DHT22;3385;48.928;10.330;2023-12-07T04:59:10;-0.30;99.90
6696;DHT22;3385;48.928;10.330;2023-12-07T05:01:36;0.10;99.90
6696;DHT22;3385;48.928;10.330;2023-12-07T05:04:03;-0.10;99.90
6696;DHT22;3385;48.928;10.330;2023-12-07T05:06:30;-0.10;99.90
6696;DHT22;3385;48.928;10.330;2023-12-07T05:08:56;0.00;99.90
6696;DHT22;3385;48.928;10.330;2023-12-07T05:11:22;0.00;99.90
6696;DHT22;3385;48.928;10.330;2023-12-07T05:13:48;-0.20;99.90
6696;DHT22;3385;48.928;10.330;2023-12-07T05:16:13;0.20;99.90
6696;DHT22;3385;48.928;10.330;2023-12-07T05:18:39;-0.20;99.90
6696;DHT22;3385;48.928;10.330;2023-12-07T05:21:05;-0.20;99.90
6696;DHT22;3385;48.928;10.330;2023-12-07T05:23:31;-0.10;99.90
6696;DHT22;3385;48.928;10.330;2023-12-07T05:25:57;0.10;99.90
6696;DHT22;3385;48.928;10.330;2023-12-07T05:28:23;0.00;99.90
6696;DHT22;3385;48.928;10.330;2023-12-07T05:30:49;-0.10;99.90
6696;DHT22;3385;48.928;10.330;2023-12-07T05:33:15;0.00;99.90
6696;DHT22;3385;48.928;10.330;2023-12-07T05:35:41;-0.10;99.90
6696;DHT22;3385;48.928;10.330;2023-12-07T05:38:07;-0.10;99.90
6696;DHT22;3385;48.928;10.330;2023-12-07T05:40:32;0.10;99.90
6696;DHT22;3385;48.928;10.330;2023-12-07T05:42:59;-0.30;99.90
6696;DHT22;3385;48.928;10.330;2023-12-07T05:45:25;-0.10;99.90
6696;DHT22;3385;48.928;10.330;2023-12-07T05:47:51;0.00;99.90
6696;DHT22;3385;48.928;10.330;2023-12-07T05:50:17;-0.30;99.90
6696;DHT22;3385;48.928;10.330;2023-12-07T05:52:43;-0.40;99.90
6696;DHT22;3385;48.928;10.330;2023-12-07T05:55:09;-0.30;99.90
6696;DHT22;3385;48.928;10.330;2023-12-07T05:57:35;-0.20;99.90
6696;DHT22;3385;48.928;10.330;2023-12-07T06:00:01;-0.40;99.90
6696;DHT22;3385;48.928;10.330;2023-12-07T06:02:27;-0.20;99.90
6696;DHT22;3385;48.928;10.330;2023-12-07T06:04:53;-0.40;99.90
6696;DHT22;3385;48.928;10.330;2023-12-07T06:07:19;-0.50;99.90
6696;DHT22;3385;48.928;10.330;2023-12-07T06:09:44;-0.10;99.90
6696;DHT22;3385;48.928;10.330;2023-12-07T06:12:10;0.10;99.90
6696;DHT22;3385;48.928;10.330;2023-12-07T06:14:36;-0.50;99.90
6696;DHT22;3385;48.928;10.330;2023-12-07T06:17:02;-0.60;99.90
6696;DHT22;3385;48.928;10.330;2023-12-07T06:19:28;-0.60;99.90
6696;DHT22;3385;48.928;10.330;2023-12-07T06:21:54;-0.60;99.90
6696;DHT22;3385;48.928;10.330;2023-12-07T06:24:20;-0.80;99.90
6696;DHT22;3385;48.928;10.330;2023-12-07T06:26:48;-1.20;99.90
6696;DHT22;3385;48.928;10.330;2023-12-07T06:29:14;-1.00;99.90
6696;DHT22;3385;48.928;10.330;2023-12-07T06:31:43;-1.30;99.90
6696;DHT22;3385;48.928;10.330;2023-12-07T06:34:09;-1.50;99.90
6696;DHT22;3385;48.928;10.330;2023-12-07T06:36:35;-1.60;99.90
6696;DHT22;3385;48.928;10.330;2023-12-07T06:39:02;-1.60;99.90
6696;DHT22;3385;48.928;10.330;2023-12-07T06:41:28;-1.50;99.90
6696;DHT22;3385;48.928;10.330;2023-12-07T06:43:54;-1.60;99.90
6696;DHT22;3385;48.928;10.330;2023-12-07T06:46:20;-1.30;99.90
6696;DHT22;3385;48.928;10.330;2023-12-07T06:48:46;-1.60;99.90
6696;DHT22;3385;48.928;10.330;2023-12-07T06:51:12;-1.40;99.90
6696;DHT22;3385;48.928;10.330;2023-12-07T06:53:40;-1.60;99.90
6696;DHT22;3385;48.928;10.330;2023-12-07T06:56:07;-1.60;99.90
6696;DHT22;3385;48.928;10.330;2023-12-07T06:58:33;-1.60;99.90
6696;DHT22;3385;48.928;10.330;2023-12-07T07:00:59;-1.60;99.90
6696;DHT22;3385;48.928;10.330;2023-12-07T07:03:25;-1.60;99.90
6696;DHT22;3385;48.928;10.330;2023-12-07T07:05:50;-1.60;99.90
6696;DHT22;3385;48.928;10.330;2023-12-07T07:08:16;-1.90;99.90
6696;DHT22;3385;48.928;10.330;2023-12-07T07:10:43;-1.60;99.90
6696;DHT22;3385;48.928;10.330;2023-12-07T07:13:09;-1.60;99.90
6696;DHT22;3385;48.928;10.330;2023-12-07T07:15:35;-1.60;99.90
6696;DHT22;3385;48.928;10.330;2023-12-07T07:18:01;-1.70;99.90
6696;DHT22;3385;48.928;10.330;2023-12-07T07:20:27;-1.70;99.90
6696;DHT22;3385;48.928;10.330;2023-12-07T07:22:53;-1.80;99.90
6696;DHT22;3385;48.928;10.330;2023-12-07T07:25:18;-1.80;99.90
6696;DHT22;3385;48.928;10.330;2023-12-07T07:27:48;-1.90;99.90
6696;DHT22;3385;48.928;10.330;2023-12-07T07:30:14;-1.70;99.90
6696;DHT22;3385;48.928;10.330;2023-12-07T07:32:40;-1.70;99.90
6696;DHT22;3385;48.928;10.330;2023-12-07T07:35:06;-1.80;99.90
6696;DHT22;3385;48.928;10.330;2023-12-07T07:37:33;-1.70;99.90
6696;DHT22;3385;48.928;10.330;2023-12-07T07:39:58;-1.60;99.90
6696;DHT22;3385;48.928;10.330;2023-12-07T07:42:25;-1.60;99.90
6696;DHT22;3385;48.928;10.330;2023-12-07T07:44:51;-1.50;99.90
6696;DHT22;3385;48.928;10.330;2023-12-07T07:47:17;-1.40;99.90
6696;DHT22;3385;48.928;10.330;2023-12-07T07:49:42;-1.30;99.90
6696;DHT22;3385;48.928;10.330;2023-12-07T07:52:08;-0.90;99.90
6696;DHT22;3385;48.928;10.330;2023-12-07T07:54:33;-1.10;99.90
6696;DHT22;3385;48.928;10.330;2023-12-07T07:56:59;-1.00;99.90
6696;DHT22;3385;48.928;10.330;2023-12-07T07:59:25;-0.90;99.90
6696;DHT22;3385;48.928;10.330;2023-12-07T08:01:51;-0.90;99.90
6696;DHT22;3385;48.928;10.330;2023-12-07T08:04:16;-0.70;99.90
6696;DHT22;3385;48.928;10.330;2023-12-07T08:06:42;-0.30;99.90
6696;DHT22;3385;48.928;10.330;2023-12-07T08:09:08;-1.10;99.90
6696;DHT22;3385;48.928;10.330;2023-12-07T08:11:35;-1.00;99.90
6696;DHT22;3385;48.928;10.330;2023-12-07T08:14:00;-0.90;99.90
6696;DHT22;3385;48.928;10.330;2023-12-07T08:16:26;-1.00;99.90
6696;DHT22;3385;48.928;10.330;2023-12-07T08:18:53;-0.90;99.90
6696;DHT22;3385;48.928;10.330;2023-12-07T08:21:22;-0.80;99.90
6696;DHT22;3385;48.928;10.330;2023-12-07T08:23:48;-0.70;99.90
6696;DHT22;3385;48.928;10.330;2023-12-07T08:26:14;-0.80;99.90
6696;DHT22;3385;48.928;10.330;2023-12-07T08:28:41;-0.90;99.90
6696;DHT22;3385;48.928;10.330;2023-12-07T08:31:07;-0.90;99.90
6696;DHT22;3385;48.928;10.330;2023-12-07T08:33:33;-0.60;99.90
6696;DHT22;3385;48.928;10.330;2023-12-07T08:36:04;-0.50;99.90
6696;DHT22;3385;48.928;10.330;2023-12-07T08:38:30;-0.50;99.90
6696;DHT22;3385;48.928;10.330;2023-12-07T08:40:56;-0.50;99.90
6696;DHT22;3385;48.928;10.330;2023-12-07T08:43:24;-0.40;99.90
6696;DHT22;3385;48.928;10.330;2023-12-07T08:45:53;-0.40;99.90
6696;DHT22;3385;48.928;10.330;2023-12-07T08:48:22;-0.60;99.90
6696;DHT22;3385;48.928;10.330;2023-12-07T08:50:48;-0.30;99.90
6696;DHT22;3385;48.928;10.330;2023-12-07T08:53:13;-0.50;99.90
6696;DHT22;3385;48.928;10.330;2023-12-07T08:55:39;-0.50;99.90
6696;DHT22;3385;48.928;10.330;2023-12-07T08:58:05;-0.40;99.90
6696;DHT22;3385;48.928;10.330;2023-12-07T09:00:32;-0.50;99.90
6696;DHT22;3385;48.928;10.330;2023-12-07T09:02:58;-0.20;99.90
6696;DHT22;3385;48.928;10.330;2023-12-07T09:05:26;-0.30;99.90
6696;DHT22;3385;48.928;10.330;2023-12-07T09:07:51;-0.40;99.90
6696;DHT22;3385;48.928;10.330;2023-12-07T09:10:18;-0.20;99.90
6696;DHT22;3385;48.928;10.330;2023-12-07T09:12:44;0.10;99.90
6696;DHT22;3385;48.928;10.330;2023-12-07T09:15:10;-0.10;99.90
6696;DHT22;3385;48.928;10.330;2023-12-07T09:17:37;0.30;99.90
6696;DHT22;3385;48.928;10.330;2023-12-07T09:20:08;0.30;99.90
6696;DHT22;3385;48.928;10.330;2023-12-07T09:22:46;0.30;99.90
6696;DHT22;3385;48.928;10.330;2023-12-07T09:25:15;0.80;99.90
6696;DHT22;3385;48.928;10.330;2023-12-07T09:27:41;1.10;99.90
6696;DHT22;3385;48.928;10.330;2023-12-07T09:30:08;0.90;99.90
6696;DHT22;3385;48.928;10.330;2023-12-07T09:32:39;1.50;99.90
6696;DHT22;3385;48.928;10.330;2023-12-07T09:35:05;1.70;99.90
6696;DHT22;3385;48.928;10.330;2023-12-07T09:37:40;1.90;99.90
6696;DHT22;3385;48.928;10.330;2023-12-07T09:40:06;1.40;99.90
6696;DHT22;3385;48.928;10.330;2023-12-07T09:42:33;1.30;99.90
6696;DHT22;3385;48.928;10.330;2023-12-07T09:44:59;1.30;99.90
6696;DHT22;3385;48.928;10.330;2023-12-07T09:47:28;1.50;99.90
6696;DHT22;3385;48.928;10.330;2023-12-07T09:49:55;1.80;99.90
6696;DHT22;3385;48.928;10.330;2023-12-07T09:52:21;1.50;99.90
6696;DHT22;3385;48.928;10.330;2023-12-07T09:54:49;1.60;99.90
6696;DHT22;3385;48.928;10.330;2023-12-07T09:57:16;1.70;99.90
6696;DHT22;3385;48.928;10.330;2023-12-07T09:59:41;1.60;99.90
6696;DHT22;3385;48.928;10.330;2023-12-07T10:02:07;1.20;99.90
6696;DHT22;3385;48.928;10.330;2023-12-07T10:04:33;1.50;99.90
6696;DHT22;3385;48.928;10.330;2023-12-07T10:06:59;1.80;99.90
6696;DHT22;3385;48.928;10.330;2023-12-07T10:09:26;1.80;99.90
6696;DHT22;3385;48.928;10.330;2023-12-07T10:12:04;1.80;99.90
6696;DHT22;3385;48.928;10.330;2023-12-07T10:14:31;1.90;99.90
6696;DHT22;3385;48.928;10.330;2023-12-07T10:16:57;1.70;99.90
6696;DHT22;3385;48.928;10.330;2023-12-07T10:19:23;1.80;99.90
6696;DHT22;3385;48.928;10.330;2023-12-07T10:21:50;2.00;99.90
6696;DHT22;3385;48.928;10.330;2023-12-07T10:24:17;2.70;99.90
6696;DHT22;3385;48.928;10.330;2023-12-07T10:26:45;3.40;99.90
6696;DHT22;3385;48.928;10.330;2023-12-07T10:29:11;3.40;99.90
6696;DHT22;3385;48.928;10.330;2023-12-07T10:31:37;3.20;99.90
6696;DHT22;3385;48.928;10.330;2023-12-07T10:34:04;3.00;99.90
6696;DHT22;3385;48.928;10.330;2023-12-07T10:36:30;2.70;99.90
6696;DHT22;3385;48.928;10.330;2023-12-07T10:38:56;2.40;99.90
6696;DHT22;3385;48.928;10.330;2023-12-07T10:41:23;2.00;99.90
6696;DHT22;3385;48.928;10.330;2023-12-07T10:43:54;2.20;99.90
6696;DHT22;3385;48.928;10.330;2023-12-07T10:46:22;2.70;99.90
6696;DHT22;3385;48.928;10.330;2023-12-07T10:48:49;2.40;99.90
6696;DHT22;3385;48.928;10.330;2023-12-07T10:54:16;3.40;99.90
6696;DHT22;3385;48.928;10.330;2023-12-07T10:56:48;3.90;99.90
6696;DHT22;3385;48.928;10.330;2023-12-07T10:59:16;4.30;99.90
6696;DHT22;3385;48.928;10.330;2023-12-07T11:01:43;4.10;99.90
6696;DHT22;3385;48.928;10.330;2023-12-07T11:04:13;4.00;99.90
6696;DHT22;3385;48.928;10.330;2023-12-07T11:06:46;4.80;99.90
6696;DHT22;3385;48.928;10.330;2023-12-07T11:09:20;5.30;99.90
6696;DHT22;3385;48.928;10.330;2023-12-07T11:12:04;5.90;99.90
6696;DHT22;3385;48.928;10.330;2023-12-07T11:14:33;5.90;99.90
6696;DHT22;3385;48.928;10.330;2023-12-07T11:16:59;5.90;99.90
6696;DHT22;3385;48.928;10.330;2023-12-07T11:22:06;6.30;99.90
6696;DHT22;3385;48.928;10.330;2023-12-07T11:24:32;6.70;99.90
6696;DHT22;3385;48.928;10.330;2023-12-07T11:26:58;6.80;99.90
6696;DHT22;3385;48.928;10.330;2023-12-07T11:29:24;6.60;99.90
6696;DHT22;3385;48.928;10.330;2023-12-07T11:31:51;5.80;99.90
6696;DHT22;3385;48.928;10.330;2023-12-07T11:37:02;5.10;99.90
6696;DHT22;3385;48.928;10.330;2023-12-07T11:39:29;5.90;99.90
6696;DHT22;3385;48.928;10.330;2023-12-07T11:41:55;6.60;99.90
6696;DHT22;3385;48.928;10.330;2023-12-07T11:44:32;6.70;99.90
6696;DHT22;3385;48.928;10.330;2023-12-07T11:46:58;6.70;99.90
6696;DHT22;3385;48.928;10.330;2023-12-07T11:49:24;6.40;99.90
6696;DHT22;3385;48.928;10.330;2023-12-07T11:51:50;5.90;99.90
6696;DHT22;3385;48.928;10.330;2023-12-07T11:54:15;5.50;99.90
6696;DHT22;3385;48.928;10.330;2023-12-07T11:56:42;5.20;99.90
6696;DHT22;3385;48.928;10.330;2023-12-07T11:59:08;5.20;99.90
6696;DHT22;3385;48.928;10.330;2023-12-07T12:01:35;4.50;99.90
6696;DHT22;3385;48.928;10.330;2023-12-07T12:04:00;4.40;99.90
6696;DHT22;3385;48.928;10.330;2023-12-07T12:06:26;4.60;99.90
6696;DHT22;3385;48.928;10.330;2023-12-07T12:08:52;4.60;99.90
6696;DHT22;3385;48.928;10.330;2023-12-07T12:11:18;4.00;99.90
6696;DHT22;3385;48.928;10.330;2023-12-07T12:13:45;4.00;99.90
6696;DHT22;3385;48.928;10.330;2023-12-07T12:16:12;3.60;99.90
6696;DHT22;3385;48.928;10.330;2023-12-07T12:18:39;4.20;99.90
6696;DHT22;3385;48.928;10.330;2023-12-07T12:21:07;4.00;99.90
6696;DHT22;3385;48.928;10.330;2023-12-07T12:23:34;3.90;99.90
6696;DHT22;3385;48.928;10.330;2023-12-07T12:26:01;3.80;99.90
6696;DHT22;3385;48.928;10.330;2023-12-07T12:28:27;4.40;99.90
6696;DHT22;3385;48.928;10.330;2023-12-07T12:30:54;5.00;99.90
6696;DHT22;3385;48.928;10.330;2023-12-07T12:33:20;5.10;99.90
6696;DHT22;3385;48.928;10.330;2023-12-07T12:35:46;4.60;99.90
6696;DHT22;3385;48.928;10.330;2023-12-07T12:38:12;4.10;99.90
6696;DHT22;3385;48.928;10.330;2023-12-07T12:40:38;3.90;99.90
6696;DHT22;3385;48.928;10.330;2023-12-07T12:43:04;4.00;99.90
6696;DHT22;3385;48.928;10.330;2023-12-07T12:45:30;3.30;99.90
6696;DHT22;3385;48.928;10.330;2023-12-07T12:47:58;3.50;99.90
6696;DHT22;3385;48.928;10.330;2023-12-07T12:50:40;3.30;99.90
6696;DHT22;3385;48.928;10.330;2023-12-07T12:53:08;3.30;99.90
6696;DHT22;3385;48.928;10.330;2023-12-07T12:55:41;3.40;99.90
6696;DHT22;3385;48.928;10.330;2023-12-07T12:58:08;3.90;99.90
6696;DHT22;3385;48.928;10.330;2023-12-07T13:00:37;4.10;99.90
6696;DHT22;3385;48.928;10.330;2023-12-07T13:03:05;4.20;99.90
6696;DHT22;3385;48.928;10.330;2023-12-07T13:05:32;3.90;99.90
6696;DHT22;3385;48.928;10.330;2023-12-07T13:07:59;4.10;99.90
6696;DHT22;3385;48.928;10.330;2023-12-07T13:10:25;3.90;99.90
6696;DHT22;3385;48.928;10.330;2023-12-07T13:12:51;3.80;99.90
6696;DHT22;3385;48.928;10.330;2023-12-07T13:15:17;4.00;99.90
6696;DHT22;3385;48.928;10.330;2023-12-07T13:17:43;3.70;99.90
6696;DHT22;3385;48.928;10.330;2023-12-07T13:20:10;3.50;99.90
6696;DHT22;3385;48.928;10.330;2023-12-07T13:22:42;3.10;99.90
6696;DHT22;3385;48.928;10.330;2023-12-07T13:25:11;2.90;99.90
6696;DHT22;3385;48.928;10.330;2023-12-07T13:27:39;2.50;99.90
6696;DHT22;3385;48.928;10.330;2023-12-07T13:30:05;3.20;99.90
6696;DHT22;3385;48.928;10.330;2023-12-07T13:32:35;3.80;99.90
6696;DHT22;3385;48.928;10.330;2023-12-07T13:35:03;4.30;99.90
6696;DHT22;3385;48.928;10.330;2023-12-07T13:37:30;4.60;99.90
6696;DHT22;3385;48.928;10.330;2023-12-07T13:39:55;4.30;99.90
6696;DHT22;3385;48.928;10.330;2023-12-07T13:42:26;3.50;99.90
6696;DHT22;3385;48.928;10.330;2023-12-07T13:44:56;3.10;99.90
6696;DHT22;3385;48.928;10.330;2023-12-07T13:47:27;2.40;99.90
6696;DHT22;3385;48.928;10.330;2023-12-07T13:50:00;2.30;99.90
6696;DHT22;3385;48.928;10.330;2023-12-07T13:52:27;1.60;99.90
6696;DHT22;3385;48.928;10.330;2023-12-07T13:54:54;1.50;99.90
6696;DHT22;3385;48.928;10.330;2023-12-07T13:57:21;1.30;99.90
6696;DHT22;3385;48.928;10.330;2023-12-07T13:59:50;1.00;99.90
6696;DHT22;3385;48.928;10.330;2023-12-07T14:02:16;1.00;99.90
6696;DHT22;3385;48.928;10.330;2023-12-07T14:04:42;1.00;99.90
6696;DHT22;3385;48.928;10.330;2023-12-07T14:07:13;0.70;99.90
6696;DHT22;3385;48.928;10.330;2023-12-07T14:09:43;0.60;99.90
6696;DHT22;3385;48.928;10.330;2023-12-07T14:12:10;0.30;99.90
6696;DHT22;3385;48.928;10.330;2023-12-07T14:14:40;0.60;99.90
6696;DHT22;3385;48.928;10.330;2023-12-07T14:17:06;0.40;99.90
6696;DHT22;3385;48.928;10.330;2023-12-07T14:19:32;0.30;99.90
6696;DHT22;3385;48.928;10.330;2023-12-07T14:21:58;0.50;99.90
6696;DHT22;3385;48.928;10.330;2023-12-07T14:24:25;0.20;99.90
6696;DHT22;3385;48.928;10.330;2023-12-07T14:26:53;0.30;99.90
6696;DHT22;3385;48.928;10.330;2023-12-07T14:29:19;0.20;99.90
6696;DHT22;3385;48.928;10.330;2023-12-07T14:31:47;0.10;99.90
6696;DHT22;3385;48.928;10.330;2023-12-07T14:34:14;0.10;99.90
6696;DHT22;3385;48.928;10.330;2023-12-07T14:36:41;0.40;99.90
6696;DHT22;3385;48.928;10.330;2023-12-07T14:39:13;0.30;99.90
6696;DHT22;3385;48.928;10.330;2023-12-07T14:41:49;0.20;99.90
6696;DHT22;3385;48.928;10.330;2023-12-07T14:44:18;0.20;99.90
6696;DHT22;3385;48.928;10.330;2023-12-07T14:46:46;-0.10;99.90
6696;DHT22;3385;48.928;10.330;2023-12-07T14:49:13;0.00;99.90
6696;DHT22;3385;48.928;10.330;2023-12-07T14:51:39;0.10;99.90
6696;DHT22;3385;48.928;10.330;2023-12-07T14:54:06;0.00;99.90
6696;DHT22;3385;48.928;10.330;2023-12-07T14:56:32;0.00;99.90
6696;DHT22;3385;48.928;10.330;2023-12-07T14:59:01;0.10;99.90
6696;DHT22;3385;48.928;10.330;2023-12-07T15:01:28;0.00;99.90
6696;DHT22;3385;48.928;10.330;2023-12-07T15:03:54;-0.20;99.90
6696;DHT22;3385;48.928;10.330;2023-12-07T15:06:19;-0.40;99.90
6696;DHT22;3385;48.928;10.330;2023-12-07T15:08:45;-0.60;99.90
6696;DHT22;3385;48.928;10.330;2023-12-07T15:11:13;-0.70;99.90
6696;DHT22;3385;48.928;10.330;2023-12-07T15:13:39;-0.70;99.90
6696;DHT22;3385;48.928;10.330;2023-12-07T15:16:05;-0.50;99.90
6696;DHT22;3385;48.928;10.330;2023-12-07T15:18:31;-0.80;99.90
6696;DHT22;3385;48.928;10.330;2023-12-07T15:21:03;-0.60;99.90
6696;DHT22;3385;48.928;10.330;2023-12-07T15:23:29;-1.10;99.90
6696;DHT22;3385;48.928;10.330;2023-12-07T15:25:59;-1.00;99.90
6696;DHT22;3385;48.928;10.330;2023-12-07T15:28:25;-0.90;99.90
6696;DHT22;3385;48.928;10.330;2023-12-07T15:30:51;-0.90;99.90
6696;DHT22;3385;48.928;10.330;2023-12-07T15:33:17;-1.10;99.90
6696;DHT22;3385;48.928;10.330;2023-12-07T15:35:43;-1.50;99.90
6696;DHT22;3385;48.928;10.330;2023-12-07T15:38:09;-1.20;99.90
6696;DHT22;3385;48.928;10.330;2023-12-07T15:40:38;-1.00;99.90
6696;DHT22;3385;48.928;10.330;2023-12-07T15:43:04;-1.30;99.90
6696;DHT22;3385;48.928;10.330;2023-12-07T15:45:30;-1.30;99.90
6696;DHT22;3385;48.928;10.330;2023-12-07T15:47:56;-1.40;99.90
6696;DHT22;3385;48.928;10.330;2023-12-07T15:50:22;-1.40;99.90
6696;DHT22;3385;48.928;10.330;2023-12-07T15:52:47;-1.40;99.90
6696;DHT22;3385;48.928;10.330;2023-12-07T15:57:42;-1.60;99.90
6696;DHT22;3385;48.928;10.330;2023-12-07T16:00:09;-1.40;99.90
6696;DHT22;3385;48.928;10.330;2023-12-07T16:02:36;-1.60;99.90
6696;DHT22;3385;48.928;10.330;2023-12-07T16:05:02;-1.50;99.90
6696;DHT22;3385;48.928;10.330;2023-12-07T16:07:28;-1.60;99.90